sensor_id;sensor_type;location;lat;lon;timestamp;P1;durP1;ratioP1;P2;durP2;ratioP2
82574;SDS011;72260;65.870;13.210;2023-08-24T00:00:16;1.70;;;1.17;;
82574;SDS011;72260;65.870;13.210;2023-08-24T00:02:43;1.33;;;1.20;;
82574;SDS011;72260;65.870;13.210;2023-08-24T00:05:08;2.05;;;1.20;;
82574;SDS011;72260;65.870;13.210;2023-08-24T00:07:34;1.83;;;1.30;;
82574;SDS011;72260;65.870;13.210;2023-08-24T00:09:59;2.00;;;1.40;;
82574;SDS011;72260;65.870;13.210;2023-08-24T00:12:24;1.80;;;1.10;;
82574;SDS011;72260;65.870;13.210;2023-08-24T00:14:51;1.88;;;1.33;;
82574;SDS011;72260;65.870;13.210;2023-08-24T00:17:17;1.17;;;1.05;;
82574;SDS011;72260;65.870;13.210;2023-08-24T00:19:42;2.28;;;1.20;;
82574;SDS011;72260;65.870;13.210;2023-08-24T00:22:08;1.77;;;1.27;;
82574;SDS011;72260;65.870;13.210;2023-08-24T00:24:34;2.25;;;1.48;;
82574;SDS011;72260;65.870;13.210;2023-08-24T00:26:59;1.35;;;1.20;;
82574;SDS011;72260;65.870;13.210;2023-08-24T00:29:25;1.75;;;1.15;;
82574;SDS011;72260;65.870;13.210;2023-08-24T00:31:50;1.80;;;1.30;;
82574;SDS011;72260;65.870;13.210;2023-08-24T00:34:16;1.83;;;1.30;;
82574;SDS011;72260;65.870;13.210;2023-08-24T00:36:41;1.70;;;1.20;;
82574;SDS011;72260;65.870;13.210;2023-08-24T00:39:06;3.03;;;1.50;;
82574;SDS011;72260;65.870;13.210;2023-08-24T00:41:32;2.20;;;1.20;;
82574;SDS011;72260;65.870;13.210;2023-08-24T00:43:58;1.95;;;1.30;;
82574;SDS011;72260;65.870;13.210;2023-08-24T00:46:23;1.73;;;1.30;;
82574;SDS011;72260;65.870;13.210;2023-08-24T00:48:52;1.15;;;1.00;;
82574;SDS011;72260;65.870;13.210;2023-08-24T00:51:21;1.65;;;1.20;;
82574;SDS011;72260;65.870;13.210;2023-08-24T00:53:47;1.90;;;1.20;;
82574;SDS011;72260;65.870;13.210;2023-08-24T00:56:13;2.78;;;1.50;;
82574;SDS011;72260;65.870;13.210;2023-08-24T00:58:39;1.70;;;1.35;;
82574;SDS011;72260;65.870;13.210;2023-08-24T01:01:05;3.42;;;1.40;;
82574;SDS011;72260;65.870;13.210;2023-08-24T01:03:30;2.08;;;1.30;;
82574;SDS011;72260;65.870;13.210;2023-08-24T01:05:57;1.50;;;1.30;;
82574;SDS011;72260;65.870;13.210;2023-08-24T01:08:22;1.52;;;1.20;;
82574;SDS011;72260;65.870;13.210;2023-08-24T01:10:57;1.60;;;1.10;;
82574;SDS011;72260;65.870;13.210;2023-08-24T01:13:44;1.73;;;1.20;;
82574;SDS011;72260;65.870;13.210;2023-08-24T01:16:16;1.73;;;1.10;;
82574;SDS011;72260;65.870;13.210;2023-08-24T01:18:46;1.35;;;1.05;;
82574;SDS011;72260;65.870;13.210;2023-08-24T01:21:13;1.67;;;1.10;;
82574;SDS011;72260;65.870;13.210;2023-08-24T01:28:37;1.30;;;1.10;;
82574;SDS011;72260;65.870;13.210;2023-08-24T01:31:06;3.88;;;1.08;;
82574;SDS011;72260;65.870;13.210;2023-08-24T01:33:33;1.50;;;1.02;;
82574;SDS011;72260;65.870;13.210;2023-08-24T01:35:58;1.42;;;1.20;;
82574;SDS011;72260;65.870;13.210;2023-08-24T01:38:24;2.10;;;1.17;;
82574;SDS011;72260;65.870;13.210;2023-08-24T01:41:01;1.73;;;1.33;;
82574;SDS011;72260;65.870;13.210;2023-08-24T01:43:30;1.40;;;1.10;;
82574;SDS011;72260;65.870;13.210;2023-08-24T01:45:59;1.08;;;0.82;;
82574;SDS011;72260;65.870;13.210;2023-08-24T01:50:56;1.52;;;0.90;;
82574;SDS011;72260;65.870;13.210;2023-08-24T01:53:23;1.10;;;1.00;;
82574;SDS011;72260;65.870;13.210;2023-08-24T01:55:51;2.83;;;1.10;;
82574;SDS011;72260;65.870;13.210;2023-08-24T01:58:18;1.58;;;1.10;;
82574;SDS011;72260;65.870;13.210;2023-08-24T02:00:43;2.25;;;1.20;;
82574;SDS011;72260;65.870;13.210;2023-08-24T02:03:10;1.40;;;1.02;;
82574;SDS011;72260;65.870;13.210;2023-08-24T02:05:36;1.52;;;1.23;;
82574;SDS011;72260;65.870;13.210;2023-08-24T02:08:01;1.25;;;1.10;;
82574;SDS011;72260;65.870;13.210;2023-08-24T02:10:27;1.38;;;1.13;;
82574;SDS011;72260;65.870;13.210;2023-08-24T02:12:52;1.73;;;1.30;;
82574;SDS011;72260;65.870;13.210;2023-08-24T02:15:18;1.13;;;0.90;;
82574;SDS011;72260;65.870;13.210;2023-08-24T02:17:43;1.42;;;1.02;;
82574;SDS011;72260;65.870;13.210;2023-08-24T02:20:10;1.00;;;0.90;;
82574;SDS011;72260;65.870;13.210;2023-08-24T02:22:36;1.88;;;1.17;;
82574;SDS011;72260;65.870;13.210;2023-08-24T02:25:02;1.67;;;1.20;;
82574;SDS011;72260;65.870;13.210;2023-08-24T02:27:30;1.17;;;1.08;;
82574;SDS011;72260;65.870;13.210;2023-08-24T02:29:56;2.20;;;1.30;;
82574;SDS011;72260;65.870;13.210;2023-08-24T02:32:22;1.70;;;1.10;;
82574;SDS011;72260;65.870;13.210;2023-08-24T02:34:47;1.50;;;1.10;;
82574;SDS011;72260;65.870;13.210;2023-08-24T02:37:12;1.33;;;1.10;;
82574;SDS011;72260;65.870;13.210;2023-08-24T02:39:38;1.85;;;1.27;;
82574;SDS011;72260;65.870;13.210;2023-08-24T02:42:04;1.30;;;1.20;;
82574;SDS011;72260;65.870;13.210;2023-08-24T02:44:30;3.22;;;1.30;;
82574;SDS011;72260;65.870;13.210;2023-08-24T02:46:56;2.30;;;1.30;;
82574;SDS011;72260;65.870;13.210;2023-08-24T02:49:22;1.73;;;1.38;;
82574;SDS011;72260;65.870;13.210;2023-08-24T02:51:47;1.90;;;1.30;;
82574;SDS011;72260;65.870;13.210;2023-08-24T02:54:13;1.88;;;1.42;;
82574;SDS011;72260;65.870;13.210;2023-08-24T02:56:39;1.92;;;1.30;;
82574;SDS011;72260;65.870;13.210;2023-08-24T02:59:05;1.58;;;1.35;;
82574;SDS011;72260;65.870;13.210;2023-08-24T03:01:30;3.53;;;2.00;;
82574;SDS011;72260;65.870;13.210;2023-08-24T03:03:56;3.50;;;1.60;;
82574;SDS011;72260;65.870;13.210;2023-08-24T03:06:22;2.00;;;1.27;;
82574;SDS011;72260;65.870;13.210;2023-08-24T03:08:49;2.35;;;1.60;;
82574;SDS011;72260;65.870;13.210;2023-08-24T03:11:15;2.45;;;1.58;;
82574;SDS011;72260;65.870;13.210;2023-08-24T03:13:40;2.05;;;1.50;;
82574;SDS011;72260;65.870;13.210;2023-08-24T03:16:06;2.20;;;1.38;;
82574;SDS011;72260;65.870;13.210;2023-08-24T03:18:32;2.40;;;1.40;;
82574;SDS011;72260;65.870;13.210;2023-08-24T03:20:58;2.00;;;1.30;;
82574;SDS011;72260;65.870;13.210;2023-08-24T03:23:24;2.60;;;1.75;;
82574;SDS011;72260;65.870;13.210;2023-08-24T03:25:49;3.28;;;1.77;;
82574;SDS011;72260;65.870;13.210;2023-08-24T03:28:15;2.13;;;1.40;;
82574;SDS011;72260;65.870;13.210;2023-08-24T03:30:45;2.08;;;1.50;;
82574;SDS011;72260;65.870;13.210;2023-08-24T03:33:13;3.13;;;1.50;;
82574;SDS011;72260;65.870;13.210;2023-08-24T03:35:41;2.30;;;1.48;;
82574;SDS011;72260;65.870;13.210;2023-08-24T03:38:07;2.40;;;1.52;;
82574;SDS011;72260;65.870;13.210;2023-08-24T03:40:33;2.78;;;1.58;;
82574;SDS011;72260;65.870;13.210;2023-08-24T03:42:58;2.65;;;1.52;;
82574;SDS011;72260;65.870;13.210;2023-08-24T03:45:24;2.20;;;1.40;;
82574;SDS011;72260;65.870;13.210;2023-08-24T03:47:52;1.90;;;1.40;;
82574;SDS011;72260;65.870;13.210;2023-08-24T03:50:18;2.45;;;1.48;;
82574;SDS011;72260;65.870;13.210;2023-08-24T03:52:44;4.30;;;1.50;;
82574;SDS011;72260;65.870;13.210;2023-08-24T03:55:09;2.00;;;1.40;;
82574;SDS011;72260;65.870;13.210;2023-08-24T03:57:35;2.10;;;1.50;;
82574;SDS011;72260;65.870;13.210;2023-08-24T04:00:00;2.22;;;1.63;;
82574;SDS011;72260;65.870;13.210;2023-08-24T04:02:26;1.95;;;1.50;;
82574;SDS011;72260;65.870;13.210;2023-08-24T04:04:52;3.17;;;1.50;;
82574;SDS011;72260;65.870;13.210;2023-08-24T04:07:17;2.90;;;1.67;;
82574;SDS011;72260;65.870;13.210;2023-08-24T04:09:43;2.47;;;1.33;;
82574;SDS011;72260;65.870;13.210;2023-08-24T04:12:10;2.97;;;1.70;;
82574;SDS011;72260;65.870;13.210;2023-08-24T04:14:36;4.07;;;1.58;;
82574;SDS011;72260;65.870;13.210;2023-08-24T04:17:01;2.83;;;1.55;;
82574;SDS011;72260;65.870;13.210;2023-08-24T04:19:27;1.92;;;1.42;;
82574;SDS011;72260;65.870;13.210;2023-08-24T04:21:52;5.20;;;2.60;;
82574;SDS011;72260;65.870;13.210;2023-08-24T04:24:18;4.07;;;2.10;;
82574;SDS011;72260;65.870;13.210;2023-08-24T04:26:43;7.45;;;3.05;;
82574;SDS011;72260;65.870;13.210;2023-08-24T04:29:09;4.45;;;2.20;;
82574;SDS011;72260;65.870;13.210;2023-08-24T04:31:35;4.15;;;2.03;;
82574;SDS011;72260;65.870;13.210;2023-08-24T04:34:02;5.13;;;2.33;;
82574;SDS011;72260;65.870;13.210;2023-08-24T04:36:29;5.43;;;1.98;;
82574;SDS011;72260;65.870;13.210;2023-08-24T04:38:54;5.63;;;1.98;;
82574;SDS011;72260;65.870;13.210;2023-08-24T04:41:20;3.35;;;1.60;;
82574;SDS011;72260;65.870;13.210;2023-08-24T04:43:45;4.70;;;2.22;;
82574;SDS011;72260;65.870;13.210;2023-08-24T04:46:12;7.20;;;2.17;;
82574;SDS011;72260;65.870;13.210;2023-08-24T04:48:37;5.07;;;2.30;;
82574;SDS011;72260;65.870;13.210;2023-08-24T04:51:03;5.55;;;2.20;;
82574;SDS011;72260;65.870;13.210;2023-08-24T04:53:29;6.55;;;2.00;;
82574;SDS011;72260;65.870;13.210;2023-08-24T04:55:55;8.98;;;2.25;;
82574;SDS011;72260;65.870;13.210;2023-08-24T04:58:20;10.65;;;3.28;;
82574;SDS011;72260;65.870;13.210;2023-08-24T05:00:46;8.38;;;2.75;;
82574;SDS011;72260;65.870;13.210;2023-08-24T05:03:13;8.05;;;2.47;;
82574;SDS011;72260;65.870;13.210;2023-08-24T05:05:40;9.98;;;2.72;;
82574;SDS011;72260;65.870;13.210;2023-08-24T05:08:06;9.45;;;3.17;;
82574;SDS011;72260;65.870;13.210;2023-08-24T05:10:35;10.65;;;3.33;;
82574;SDS011;72260;65.870;13.210;2023-08-24T05:13:01;7.65;;;2.45;;
82574;SDS011;72260;65.870;13.210;2023-08-24T05:15:27;10.65;;;3.50;;
82574;SDS011;72260;65.870;13.210;2023-08-24T05:17:52;11.98;;;3.08;;
82574;SDS011;72260;65.870;13.210;2023-08-24T05:20:21;14.43;;;3.30;;
82574;SDS011;72260;65.870;13.210;2023-08-24T05:22:47;10.20;;;2.88;;
82574;SDS011;72260;65.870;13.210;2023-08-24T05:25:13;12.63;;;2.97;;
82574;SDS011;72260;65.870;13.210;2023-08-24T05:27:41;12.88;;;4.50;;
82574;SDS011;72260;65.870;13.210;2023-08-24T05:30:07;15.80;;;4.57;;
82574;SDS011;72260;65.870;13.210;2023-08-24T05:32:34;18.63;;;4.95;;
82574;SDS011;72260;65.870;13.210;2023-08-24T05:35:05;11.32;;;4.00;;
82574;SDS011;72260;65.870;13.210;2023-08-24T05:37:32;8.90;;;2.45;;
82574;SDS011;72260;65.870;13.210;2023-08-24T05:39:58;13.50;;;3.80;;
82574;SDS011;72260;65.870;13.210;2023-08-24T05:42:24;13.60;;;3.65;;
82574;SDS011;72260;65.870;13.210;2023-08-24T05:44:50;10.07;;;3.13;;
82574;SDS011;72260;65.870;13.210;2023-08-24T05:47:15;8.02;;;2.72;;
82574;SDS011;72260;65.870;13.210;2023-08-24T05:49:41;13.68;;;3.33;;
82574;SDS011;72260;65.870;13.210;2023-08-24T05:52:06;6.80;;;2.97;;
82574;SDS011;72260;65.870;13.210;2023-08-24T05:54:32;8.57;;;3.00;;
82574;SDS011;72260;65.870;13.210;2023-08-24T05:56:58;7.78;;;3.05;;
82574;SDS011;72260;65.870;13.210;2023-08-24T05:59:26;17.23;;;4.40;;
82574;SDS011;72260;65.870;13.210;2023-08-24T06:01:52;10.38;;;3.30;;
82574;SDS011;72260;65.870;13.210;2023-08-24T06:04:17;11.50;;;3.20;;
82574;SDS011;72260;65.870;13.210;2023-08-24T06:06:44;6.55;;;2.50;;
82574;SDS011;72260;65.870;13.210;2023-08-24T06:09:10;9.13;;;2.90;;
82574;SDS011;72260;65.870;13.210;2023-08-24T06:11:35;8.80;;;2.88;;
82574;SDS011;72260;65.870;13.210;2023-08-24T06:14:01;15.25;;;3.75;;
82574;SDS011;72260;65.870;13.210;2023-08-24T06:16:27;14.68;;;5.82;;
82574;SDS011;72260;65.870;13.210;2023-08-24T06:18:53;13.20;;;4.22;;
82574;SDS011;72260;65.870;13.210;2023-08-24T06:21:19;9.57;;;3.40;;
82574;SDS011;72260;65.870;13.210;2023-08-24T06:23:45;12.10;;;3.50;;
82574;SDS011;72260;65.870;13.210;2023-08-24T06:26:12;14.02;;;4.07;;
82574;SDS011;72260;65.870;13.210;2023-08-24T06:28:38;10.25;;;4.18;;
82574;SDS011;72260;65.870;13.210;2023-08-24T06:31:04;17.38;;;4.32;;
82574;SDS011;72260;65.870;13.210;2023-08-24T06:33:33;12.60;;;4.10;;
82574;SDS011;72260;65.870;13.210;2023-08-24T06:38:25;10.15;;;3.55;;
82574;SDS011;72260;65.870;13.210;2023-08-24T06:40:50;11.80;;;4.72;;
82574;SDS011;72260;65.870;13.210;2023-08-24T06:43:16;10.25;;;3.85;;
82574;SDS011;72260;65.870;13.210;2023-08-24T06:45:42;9.82;;;4.63;;
82574;SDS011;72260;65.870;13.210;2023-08-24T06:48:10;13.95;;;5.40;;
82574;SDS011;72260;65.870;13.210;2023-08-24T06:50:36;9.60;;;4.30;;
82574;SDS011;72260;65.870;13.210;2023-08-24T06:53:02;11.27;;;3.78;;
82574;SDS011;72260;65.870;13.210;2023-08-24T06:55:28;8.05;;;3.67;;
82574;SDS011;72260;65.870;13.210;2023-08-24T06:57:54;11.10;;;5.07;;
82574;SDS011;72260;65.870;13.210;2023-08-24T07:00:20;12.43;;;4.80;;
82574;SDS011;72260;65.870;13.210;2023-08-24T07:02:49;11.40;;;4.55;;
82574;SDS011;72260;65.870;13.210;2023-08-24T07:05:15;13.75;;;5.25;;
82574;SDS011;72260;65.870;13.210;2023-08-24T07:07:44;11.63;;;4.45;;
82574;SDS011;72260;65.870;13.210;2023-08-24T07:10:14;11.65;;;4.45;;
82574;SDS011;72260;65.870;13.210;2023-08-24T07:12:40;15.65;;;6.47;;
82574;SDS011;72260;65.870;13.210;2023-08-24T07:15:06;10.15;;;4.70;;
82574;SDS011;72260;65.870;13.210;2023-08-24T07:17:32;13.55;;;5.68;;
82574;SDS011;72260;65.870;13.210;2023-08-24T07:19:58;11.88;;;5.88;;
82574;SDS011;72260;65.870;13.210;2023-08-24T07:22:23;10.27;;;4.68;;
82574;SDS011;72260;65.870;13.210;2023-08-24T07:24:51;11.15;;;4.85;;
82574;SDS011;72260;65.870;13.210;2023-08-24T07:27:17;9.68;;;4.32;;
82574;SDS011;72260;65.870;13.210;2023-08-24T07:29:43;8.35;;;4.10;;
82574;SDS011;72260;65.870;13.210;2023-08-24T07:32:09;11.98;;;4.40;;
82574;SDS011;72260;65.870;13.210;2023-08-24T07:34:34;11.23;;;5.28;;
82574;SDS011;72260;65.870;13.210;2023-08-24T07:37:00;12.63;;;5.25;;
82574;SDS011;72260;65.870;13.210;2023-08-24T07:39:26;12.23;;;5.80;;
82574;SDS011;72260;65.870;13.210;2023-08-24T07:41:52;11.23;;;5.32;;
82574;SDS011;72260;65.870;13.210;2023-08-24T07:44:17;13.38;;;5.20;;
82574;SDS011;72260;65.870;13.210;2023-08-24T07:46:43;10.38;;;4.45;;
82574;SDS011;72260;65.870;13.210;2023-08-24T07:49:09;10.18;;;4.93;;
82574;SDS011;72260;65.870;13.210;2023-08-24T07:51:34;11.63;;;5.72;;
82574;SDS011;72260;65.870;13.210;2023-08-24T07:54:00;10.82;;;4.88;;
82574;SDS011;72260;65.870;13.210;2023-08-24T07:56:26;11.73;;;5.35;;
82574;SDS011;72260;65.870;13.210;2023-08-24T07:58:52;9.48;;;4.40;;
82574;SDS011;72260;65.870;13.210;2023-08-24T08:01:17;11.07;;;5.32;;
82574;SDS011;72260;65.870;13.210;2023-08-24T08:03:42;10.57;;;4.90;;
82574;SDS011;72260;65.870;13.210;2023-08-24T08:06:08;9.13;;;4.60;;
82574;SDS011;72260;65.870;13.210;2023-08-24T08:08:34;8.63;;;4.53;;
82574;SDS011;72260;65.870;13.210;2023-08-24T08:11:00;9.00;;;4.28;;
82574;SDS011;72260;65.870;13.210;2023-08-24T08:13:28;9.68;;;4.80;;
82574;SDS011;72260;65.870;13.210;2023-08-24T08:15:59;12.68;;;5.03;;
82574;SDS011;72260;65.870;13.210;2023-08-24T08:18:28;9.70;;;4.80;;
82574;SDS011;72260;65.870;13.210;2023-08-24T08:20:54;9.55;;;4.30;;
82574;SDS011;72260;65.870;13.210;2023-08-24T08:23:19;7.47;;;3.67;;
82574;SDS011;72260;65.870;13.210;2023-08-24T08:25:45;7.95;;;3.55;;
82574;SDS011;72260;65.870;13.210;2023-08-24T08:28:10;6.95;;;3.30;;
82574;SDS011;72260;65.870;13.210;2023-08-24T08:30:36;6.20;;;3.13;;
82574;SDS011;72260;65.870;13.210;2023-08-24T08:33:01;5.90;;;3.15;;
82574;SDS011;72260;65.870;13.210;2023-08-24T08:35:27;5.22;;;2.70;;
82574;SDS011;72260;65.870;13.210;2023-08-24T08:37:52;5.82;;;3.33;;
82574;SDS011;72260;65.870;13.210;2023-08-24T08:40:18;8.23;;;3.78;;
82574;SDS011;72260;65.870;13.210;2023-08-24T08:42:44;6.15;;;3.80;;
82574;SDS011;72260;65.870;13.210;2023-08-24T08:45:10;5.40;;;3.00;;
82574;SDS011;72260;65.870;13.210;2023-08-24T08:47:37;5.60;;;3.38;;
82574;SDS011;72260;65.870;13.210;2023-08-24T08:50:03;5.82;;;3.35;;
82574;SDS011;72260;65.870;13.210;2023-08-24T08:52:29;4.55;;;3.00;;
82574;SDS011;72260;65.870;13.210;2023-08-24T08:54:55;6.15;;;3.45;;
82574;SDS011;72260;65.870;13.210;2023-08-24T08:57:24;5.38;;;3.17;;
82574;SDS011;72260;65.870;13.210;2023-08-24T08:59:50;5.45;;;3.58;;
82574;SDS011;72260;65.870;13.210;2023-08-24T09:02:18;5.03;;;3.03;;
82574;SDS011;72260;65.870;13.210;2023-08-24T09:04:45;4.07;;;2.92;;
82574;SDS011;72260;65.870;13.210;2023-08-24T09:07:15;4.50;;;2.53;;
82574;SDS011;72260;65.870;13.210;2023-08-24T09:09:41;5.43;;;2.72;;
82574;SDS011;72260;65.870;13.210;2023-08-24T09:12:07;4.93;;;3.20;;
82574;SDS011;72260;65.870;13.210;2023-08-24T09:14:33;5.00;;;3.58;;
82574;SDS011;72260;65.870;13.210;2023-08-24T09:16:59;5.38;;;3.17;;
82574;SDS011;72260;65.870;13.210;2023-08-24T09:19:28;5.82;;;3.45;;
82574;SDS011;72260;65.870;13.210;2023-08-24T09:21:56;5.35;;;3.55;;
82574;SDS011;72260;65.870;13.210;2023-08-24T09:24:32;8.18;;;3.53;;
82574;SDS011;72260;65.870;13.210;2023-08-24T09:26:59;4.93;;;3.28;;
82574;SDS011;72260;65.870;13.210;2023-08-24T09:29:28;6.43;;;3.50;;
82574;SDS011;72260;65.870;13.210;2023-08-24T09:32:01;6.97;;;3.38;;
82574;SDS011;72260;65.870;13.210;2023-08-24T09:34:27;6.60;;;3.30;;
82574;SDS011;72260;65.870;13.210;2023-08-24T09:36:53;6.20;;;3.60;;
82574;SDS011;72260;65.870;13.210;2023-08-24T09:39:18;7.13;;;3.33;;
82574;SDS011;72260;65.870;13.210;2023-08-24T09:41:48;8.13;;;3.47;;
82574;SDS011;72260;65.870;13.210;2023-08-24T09:44:16;6.38;;;3.40;;
82574;SDS011;72260;65.870;13.210;2023-08-24T09:46:43;5.00;;;3.08;;
82574;SDS011;72260;65.870;13.210;2023-08-24T09:49:11;4.85;;;3.17;;
82574;SDS011;72260;65.870;13.210;2023-08-24T09:51:38;4.25;;;3.20;;
82574;SDS011;72260;65.870;13.210;2023-08-24T09:54:07;5.28;;;2.97;;
82574;SDS011;72260;65.870;13.210;2023-08-24T09:56:35;5.03;;;3.00;;
82574;SDS011;72260;65.870;13.210;2023-08-24T10:01:32;4.38;;;2.78;;
82574;SDS011;72260;65.870;13.210;2023-08-24T10:03:59;3.88;;;2.72;;
82574;SDS011;72260;65.870;13.210;2023-08-24T10:06:28;4.85;;;2.72;;
82574;SDS011;72260;65.870;13.210;2023-08-24T10:08:55;6.30;;;2.53;;
82574;SDS011;72260;65.870;13.210;2023-08-24T10:11:26;5.20;;;2.55;;
82574;SDS011;72260;65.870;13.210;2023-08-24T10:14:00;3.55;;;2.60;;
82574;SDS011;72260;65.870;13.210;2023-08-24T10:16:33;6.13;;;2.58;;
82574;SDS011;72260;65.870;13.210;2023-08-24T10:19:00;6.47;;;3.05;;
82574;SDS011;72260;65.870;13.210;2023-08-24T10:21:28;4.82;;;2.80;;
82574;SDS011;72260;65.870;13.210;2023-08-24T10:23:54;5.68;;;2.55;;
82574;SDS011;72260;65.870;13.210;2023-08-24T10:26:22;3.20;;;2.38;;
82574;SDS011;72260;65.870;13.210;2023-08-24T10:28:49;3.47;;;2.40;;
82574;SDS011;72260;65.870;13.210;2023-08-24T10:31:16;3.38;;;2.60;;
82574;SDS011;72260;65.870;13.210;2023-08-24T10:33:42;3.45;;;2.20;;
82574;SDS011;72260;65.870;13.210;2023-08-24T10:36:10;5.43;;;2.40;;
82574;SDS011;72260;65.870;13.210;2023-08-24T10:38:42;4.13;;;2.22;;
82574;SDS011;72260;65.870;13.210;2023-08-24T10:41:08;2.55;;;2.13;;
82574;SDS011;72260;65.870;13.210;2023-08-24T10:43:38;2.85;;;2.22;;
82574;SDS011;72260;65.870;13.210;2023-08-24T10:46:04;3.05;;;1.95;;
82574;SDS011;72260;65.870;13.210;2023-08-24T10:53:51;3.25;;;2.10;;
82574;SDS011;72260;65.870;13.210;2023-08-24T10:56:18;2.50;;;1.90;;
82574;SDS011;72260;65.870;13.210;2023-08-24T10:58:45;2.40;;;1.90;;
82574;SDS011;72260;65.870;13.210;2023-08-24T11:01:17;1.92;;;1.48;;
82574;SDS011;72260;65.870;13.210;2023-08-24T11:03:50;2.75;;;1.75;;
82574;SDS011;72260;65.870;13.210;2023-08-24T11:06:23;4.20;;;1.92;;
82574;SDS011;72260;65.870;13.210;2023-08-24T11:08:57;2.53;;;1.77;;
82574;SDS011;72260;65.870;13.210;2023-08-24T11:11:32;3.08;;;1.92;;
82574;SDS011;72260;65.870;13.210;2023-08-24T11:14:16;3.00;;;1.58;;
82574;SDS011;72260;65.870;13.210;2023-08-24T11:16:55;2.60;;;1.50;;
82574;SDS011;72260;65.870;13.210;2023-08-24T11:19:22;3.13;;;2.10;;
82574;SDS011;72260;65.870;13.210;2023-08-24T11:21:48;2.88;;;1.95;;
82574;SDS011;72260;65.870;13.210;2023-08-24T11:24:14;3.35;;;2.30;;
82574;SDS011;72260;65.870;13.210;2023-08-24T11:26:45;2.72;;;1.90;;
82574;SDS011;72260;65.870;13.210;2023-08-24T11:29:11;2.78;;;1.92;;
82574;SDS011;72260;65.870;13.210;2023-08-24T11:31:37;2.42;;;1.80;;
82574;SDS011;72260;65.870;13.210;2023-08-24T11:34:04;3.45;;;1.98;;
82574;SDS011;72260;65.870;13.210;2023-08-24T11:36:31;2.78;;;1.90;;
82574;SDS011;72260;65.870;13.210;2023-08-24T11:38:57;3.10;;;1.80;;
82574;SDS011;72260;65.870;13.210;2023-08-24T11:41:24;2.17;;;1.63;;
82574;SDS011;72260;65.870;13.210;2023-08-24T11:43:58;3.22;;;1.83;;
82574;SDS011;72260;65.870;13.210;2023-08-24T11:46:24;2.10;;;1.60;;
82574;SDS011;72260;65.870;13.210;2023-08-24T11:48:50;2.38;;;1.38;;
82574;SDS011;72260;65.870;13.210;2023-08-24T11:51:16;1.40;;;1.30;;
82574;SDS011;72260;65.870;13.210;2023-08-24T11:53:43;3.05;;;1.25;;
82574;SDS011;72260;65.870;13.210;2023-08-24T11:56:12;2.53;;;1.35;;
82574;SDS011;72260;65.870;13.210;2023-08-24T11:58:41;2.22;;;1.30;;
82574;SDS011;72260;65.870;13.210;2023-08-24T12:01:09;1.98;;;1.42;;
82574;SDS011;72260;65.870;13.210;2023-08-24T12:03:36;1.63;;;1.52;;
82574;SDS011;72260;65.870;13.210;2023-08-24T12:06:06;1.73;;;1.27;;
82574;SDS011;72260;65.870;13.210;2023-08-24T12:08:42;2.15;;;1.20;;
82574;SDS011;72260;65.870;13.210;2023-08-24T12:11:17;2.65;;;1.23;;
82574;SDS011;72260;65.870;13.210;2023-08-24T12:13:45;2.35;;;1.30;;
82574;SDS011;72260;65.870;13.210;2023-08-24T12:16:12;2.47;;;1.50;;
82574;SDS011;72260;65.870;13.210;2023-08-24T12:18:51;3.45;;;1.48;;
82574;SDS011;72260;65.870;13.210;2023-08-24T12:21:19;1.52;;;1.20;;
82574;SDS011;72260;65.870;13.210;2023-08-24T12:23:54;1.33;;;1.13;;
82574;SDS011;72260;65.870;13.210;2023-08-24T12:26:23;1.30;;;1.20;;
82574;SDS011;72260;65.870;13.210;2023-08-24T12:28:49;1.38;;;1.17;;
82574;SDS011;72260;65.870;13.210;2023-08-24T12:31:17;1.92;;;1.10;;
82574;SDS011;72260;65.870;13.210;2023-08-24T12:33:43;2.35;;;1.50;;
82574;SDS011;72260;65.870;13.210;2023-08-24T12:36:09;1.35;;;1.20;;
82574;SDS011;72260;65.870;13.210;2023-08-24T12:38:35;2.22;;;1.05;;
82574;SDS011;72260;65.870;13.210;2023-08-24T12:41:01;2.90;;;1.40;;
82574;SDS011;72260;65.870;13.210;2023-08-24T12:43:26;2.03;;;1.50;;
82574;SDS011;72260;65.870;13.210;2023-08-24T12:45:52;3.22;;;1.30;;
82574;SDS011;72260;65.870;13.210;2023-08-24T12:48:18;1.67;;;1.30;;
82574;SDS011;72260;65.870;13.210;2023-08-24T12:50:43;2.63;;;1.42;;
82574;SDS011;72260;65.870;13.210;2023-08-24T12:53:09;1.45;;;1.17;;
82574;SDS011;72260;65.870;13.210;2023-08-24T12:55:35;1.98;;;1.38;;
82574;SDS011;72260;65.870;13.210;2023-08-24T12:58:02;1.55;;;1.30;;
82574;SDS011;72260;65.870;13.210;2023-08-24T13:00:28;2.55;;;1.10;;
82574;SDS011;72260;65.870;13.210;2023-08-24T13:02:54;1.63;;;1.30;;
82574;SDS011;72260;65.870;13.210;2023-08-24T13:05:20;1.27;;;1.13;;
82574;SDS011;72260;65.870;13.210;2023-08-24T13:07:46;1.85;;;1.10;;
82574;SDS011;72260;65.870;13.210;2023-08-24T13:10:11;1.10;;;1.00;;
82574;SDS011;72260;65.870;13.210;2023-08-24T13:12:38;2.92;;;1.40;;
82574;SDS011;72260;65.870;13.210;2023-08-24T13:15:04;1.45;;;1.10;;
82574;SDS011;72260;65.870;13.210;2023-08-24T13:17:30;2.13;;;1.25;;
82574;SDS011;72260;65.870;13.210;2023-08-24T13:19:56;1.23;;;1.10;;
82574;SDS011;72260;65.870;13.210;2023-08-24T13:22:21;3.33;;;1.25;;
82574;SDS011;72260;65.870;13.210;2023-08-24T13:24:47;0.98;;;0.98;;
82574;SDS011;72260;65.870;13.210;2023-08-24T13:27:12;1.35;;;1.02;;
82574;SDS011;72260;65.870;13.210;2023-08-24T13:29:41;1.40;;;1.20;;
82574;SDS011;72260;65.870;13.210;2023-08-24T13:32:06;1.42;;;1.10;;
82574;SDS011;72260;65.870;13.210;2023-08-24T13:34:32;1.40;;;1.20;;
82574;SDS011;72260;65.870;13.210;2023-08-24T13:36:58;3.90;;;1.17;;
82574;SDS011;72260;65.870;13.210;2023-08-24T13:39:27;2.10;;;1.13;;
82574;SDS011;72260;65.870;13.210;2023-08-24T13:41:57;1.25;;;1.15;;
82574;SDS011;72260;65.870;13.210;2023-08-24T13:44:23;3.67;;;1.27;;
82574;SDS011;72260;65.870;13.210;2023-08-24T13:47:08;2.90;;;1.40;;
82574;SDS011;72260;65.870;13.210;2023-08-24T13:49:33;1.80;;;1.15;;
82574;SDS011;72260;65.870;13.210;2023-08-24T13:51:59;1.10;;;0.93;;
82574;SDS011;72260;65.870;13.210;2023-08-24T13:54:34;1.40;;;1.30;;
82574;SDS011;72260;65.870;13.210;2023-08-24T13:56:59;1.10;;;0.90;;
82574;SDS011;72260;65.870;13.210;2023-08-24T13:59:26;1.33;;;1.05;;
82574;SDS011;72260;65.870;13.210;2023-08-24T14:01:51;1.55;;;1.23;;
82574;SDS011;72260;65.870;13.210;2023-08-24T14:04:17;1.05;;;0.95;;
82574;SDS011;72260;65.870;13.210;2023-08-24T14:06:42;1.40;;;1.20;;
82574;SDS011;72260;65.870;13.210;2023-08-24T14:09:08;1.55;;;1.20;;
82574;SDS011;72260;65.870;13.210;2023-08-24T14:11:33;1.33;;;1.20;;
82574;SDS011;72260;65.870;13.210;2023-08-24T14:13:59;2.10;;;1.13;;
82574;SDS011;72260;65.870;13.210;2023-08-24T14:16:25;1.20;;;1.10;;
82574;SDS011;72260;65.870;13.210;2023-08-24T14:18:53;1.40;;;1.10;;
82574;SDS011;72260;65.870;13.210;2023-08-24T14:21:18;1.25;;;1.13;;
82574;SDS011;72260;65.870;13.210;2023-08-24T14:23:48;1.42;;;1.00;;
82574;SDS011;72260;65.870;13.210;2023-08-24T14:26:17;1.75;;;1.15;;
82574;SDS011;72260;65.870;13.210;2023-08-24T14:28:47;3.40;;;1.17;;
82574;SDS011;72260;65.870;13.210;2023-08-24T14:31:18;1.10;;;1.00;;
82574;SDS011;72260;65.870;13.210;2023-08-24T14:33:44;2.20;;;1.13;;
82574;SDS011;72260;65.870;13.210;2023-08-24T14:36:10;1.55;;;1.25;;
82574;SDS011;72260;65.870;13.210;2023-08-24T14:38:38;1.60;;;1.10;;
82574;SDS011;72260;65.870;13.210;2023-08-24T14:41:09;1.50;;;1.20;;
82574;SDS011;72260;65.870;13.210;2023-08-24T14:43:36;1.88;;;1.15;;
82574;SDS011;72260;65.870;13.210;2023-08-24T14:46:02;1.33;;;1.17;;
82574;SDS011;72260;65.870;13.210;2023-08-24T14:48:28;1.67;;;1.20;;